createdAt,value
2023-05-19T00:01:15.162Z,10.48
2023-05-19T00:03:59.124Z,12.20
2023-05-19T00:06:27.580Z,8.85
2023-05-19T00:08:58.201Z,8.35
2023-05-19T00:11:26.905Z,8.95
2023-05-19T00:13:54.578Z,10.55
2023-05-19T00:16:22.572Z,12.25
2023-05-19T00:18:49.694Z,8.00
2023-05-19T00:21:16.893Z,10.57
2023-05-19T00:23:43.800Z,10.13
2023-05-19T00:26:11.004Z,11.52
2023-05-19T00:28:39.402Z,10.30
2023-05-19T00:31:06.875Z,10.15
2023-05-19T00:33:33.911Z,12.52
2023-05-19T00:36:04.561Z,11.63
2023-05-19T00:38:31.920Z,10.30
2023-05-19T00:40:59.464Z,12.27
2023-05-19T00:43:26.436Z,10.45
2023-05-19T00:45:53.525Z,9.85
2023-05-19T00:48:20.934Z,13.55
2023-05-19T00:50:48.551Z,11.68
2023-05-19T00:53:15.517Z,7.68
2023-05-19T00:55:42.755Z,9.45
2023-05-19T00:58:11.853Z,8.90
2023-05-19T01:00:39.788Z,9.13
2023-05-19T01:03:11.358Z,9.38
2023-05-19T01:05:42.625Z,11.43
2023-05-19T01:08:09.687Z,9.65
2023-05-19T01:10:37.008Z,10.55
2023-05-19T01:13:05.306Z,8.60
2023-05-19T01:15:40.801Z,11.48
2023-05-19T01:18:07.743Z,10.60
2023-05-19T01:20:38.762Z,9.88
2023-05-19T01:23:21.489Z,10.18
2023-05-19T01:26:12.963Z,10.68
2023-05-19T01:28:45.960Z,10.23
2023-05-19T01:31:12.860Z,9.40
2023-05-19T01:33:40.265Z,11.98
2023-05-19T01:36:08.235Z,10.60
2023-05-19T01:38:36.208Z,9.65
2023-05-19T01:41:04.004Z,13.23
2023-05-19T01:43:30.962Z,9.02
2023-05-19T01:46:00.592Z,10.80
2023-05-19T01:48:29.128Z,9.45
2023-05-19T01:50:58.190Z,10.63
2023-05-19T01:53:25.343Z,10.57
2023-05-19T01:55:53.922Z,11.27
2023-05-19T01:58:22.751Z,11.00
2023-05-19T02:01:01.167Z,11.25
2023-05-19T02:03:52.429Z,9.57
2023-05-19T02:06:43.618Z,8.63
2023-05-19T02:09:30.356Z,9.57
2023-05-19T02:12:26.632Z,10.75
2023-05-19T02:15:00.399Z,9.82
2023-05-19T02:17:27.906Z,8.52
2023-05-19T02:19:54.733Z,11.23
2023-05-19T02:22:21.658Z,11.52
2023-05-19T02:24:51.561Z,10.25
2023-05-19T02:27:18.801Z,7.68
2023-05-19T02:29:46.057Z,9.65
2023-05-19T02:32:13.726Z,9.20
2023-05-19T02:34:42.299Z,12.68
2023-05-19T02:37:09.357Z,9.40
2023-05-19T02:39:36.305Z,9.60
2023-05-19T02:42:03.421Z,10.60
2023-05-19T02:44:30.316Z,11.30
2023-05-19T02:46:57.248Z,9.38
2023-05-19T02:49:24.135Z,9.85
2023-05-19T02:51:51.096Z,10.02
2023-05-19T02:54:17.938Z,8.65
2023-05-19T02:56:44.912Z,10.15
2023-05-19T02:59:11.766Z,12.65
2023-05-19T03:01:40.382Z,9.32
2023-05-19T03:04:07.756Z,11.07
2023-05-19T03:06:34.756Z,10.57
2023-05-19T03:09:01.677Z,9.27
2023-05-19T03:11:29.628Z,11.52
2023-05-19T03:13:56.493Z,10.13
2023-05-19T03:16:23.461Z,12.27
2023-05-19T03:18:51.071Z,11.02
2023-05-19T03:21:18.047Z,12.35
2023-05-19T03:23:44.896Z,9.82
2023-05-19T03:26:11.936Z,10.35
2023-05-19T03:28:38.870Z,12.57
2023-05-19T03:31:06.006Z,9.52
2023-05-19T03:33:37.637Z,11.50
2023-05-19T03:36:05.814Z,10.73
2023-05-19T03:38:36.560Z,10.82
2023-05-19T03:41:03.803Z,11.13
2023-05-19T03:43:31.653Z,10.90
2023-05-19T03:46:02.895Z,10.90
2023-05-19T03:48:41.797Z,13.27
2023-05-19T03:51:28.572Z,9.85
2023-05-19T03:53:58.542Z,10.73
2023-05-19T03:56:27.666Z,10.85
2023-05-19T03:58:55.360Z,12.02
2023-05-19T04:01:22.389Z,11.98
2023-05-19T04:03:49.339Z,9.85
2023-05-19T04:06:16.414Z,9.75
2023-05-19T04:08:44.298Z,10.07
2023-05-19T04:11:12.419Z,11.63
2023-05-19T04:13:39.317Z,12.50
2023-05-19T04:16:06.739Z,11.23
2023-05-19T04:18:33.679Z,12.75
2023-05-19T04:21:00.528Z,10.85
2023-05-19T04:23:27.454Z,12.98
2023-05-19T04:25:57.063Z,10.27
2023-05-19T04:28:24.304Z,9.80
2023-05-19T04:30:51.617Z,10.15
2023-05-19T04:33:20.160Z,10.13
2023-05-19T04:35:47.623Z,11.63
2023-05-19T04:38:18.819Z,10.55
2023-05-19T04:40:50.218Z,12.20
2023-05-19T04:43:19.389Z,10.70
2023-05-19T04:45:47.333Z,12.18
2023-05-19T04:48:15.207Z,13.52
2023-05-19T04:50:42.336Z,11.57
2023-05-19T04:53:10.000Z,14.93
2023-05-19T04:55:38.709Z,11.02
2023-05-19T04:58:06.691Z,12.55
2023-05-19T05:00:35.838Z,12.18
2023-05-19T05:03:06.438Z,15.05
2023-05-19T05:05:34.980Z,11.02
2023-05-19T05:08:01.840Z,14.23
2023-05-19T05:10:32.833Z,12.32
2023-05-19T05:13:00.879Z,13.98
2023-05-19T05:15:29.815Z,14.18
2023-05-19T05:17:59.420Z,13.63
2023-05-19T05:20:26.841Z,15.40
2023-05-19T05:22:54.124Z,11.57
2023-05-19T05:25:22.645Z,15.35
2023-05-19T05:27:50.248Z,10.68
2023-05-19T05:30:17.117Z,13.40
2023-05-19T05:32:44.650Z,15.10
2023-05-19T05:35:26.231Z,12.88
2023-05-19T05:37:53.482Z,15.07
2023-05-19T05:40:20.432Z,14.13
2023-05-19T05:42:47.943Z,11.38
2023-05-19T05:45:15.723Z,10.98
2023-05-19T05:47:43.139Z,10.25
2023-05-19T05:50:10.807Z,10.32
2023-05-19T05:52:37.963Z,10.98
2023-05-19T05:55:06.013Z,11.20
2023-05-19T05:57:36.960Z,12.55
2023-05-19T06:00:07.909Z,9.45
2023-05-19T06:02:47.442Z,11.27
2023-05-19T06:05:16.068Z,10.90
2023-05-19T06:07:43.785Z,11.40
2023-05-19T06:10:12.776Z,13.13
2023-05-19T06:12:43.324Z,13.90
2023-05-19T06:15:11.712Z,12.95
2023-05-19T06:18:01.864Z,12.65
2023-05-19T06:20:29.436Z,13.40
2023-05-19T06:22:57.080Z,15.40
2023-05-19T06:25:27.010Z,13.77
2023-05-19T06:27:54.562Z,16.65
2023-05-19T06:30:22.901Z,12.45
2023-05-19T06:33:12.481Z,13.30
2023-05-19T06:35:39.463Z,15.88
2023-05-19T06:38:06.606Z,16.25
2023-05-19T06:40:33.754Z,19.60
2023-05-19T06:43:00.892Z,15.40
2023-05-19T06:45:52.021Z,17.38
2023-05-19T06:48:19.277Z,15.88
2023-05-19T06:50:46.234Z,17.02
2023-05-19T06:53:13.468Z,16.13
2023-05-19T06:55:54.434Z,15.40
2023-05-19T06:58:26.751Z,19.75
2023-05-19T07:00:53.806Z,17.75
2023-05-19T07:03:21.366Z,14.60
2023-05-19T07:05:48.787Z,18.35
2023-05-19T07:08:15.866Z,17.65
2023-05-19T07:10:43.447Z,16.85
2023-05-19T07:13:13.337Z,18.17
2023-05-19T07:15:41.298Z,15.60
2023-05-19T07:18:08.183Z,15.88
2023-05-19T07:20:36.025Z,15.93
2023-05-19T07:23:03.544Z,15.85
2023-05-19T07:25:30.807Z,14.75
2023-05-19T07:27:57.838Z,15.75
2023-05-19T07:30:25.059Z,14.13
2023-05-19T07:32:51.999Z,15.70
2023-05-19T07:35:18.959Z,16.17
2023-05-19T07:37:45.893Z,15.85
2023-05-19T07:40:13.172Z,15.82
2023-05-19T07:42:40.566Z,15.88
2023-05-19T07:45:07.963Z,18.13
2023-05-19T07:47:34.842Z,13.27
2023-05-19T07:50:01.773Z,13.10
2023-05-19T07:52:28.854Z,16.13
2023-05-19T07:54:56.000Z,15.65
2023-05-19T07:57:22.995Z,13.43
2023-05-19T07:59:49.862Z,14.43
2023-05-19T08:02:16.775Z,13.90
2023-05-19T08:04:43.730Z,16.98
2023-05-19T08:07:10.858Z,15.40
2023-05-19T08:09:37.744Z,16.02
2023-05-19T08:12:05.020Z,17.63
2023-05-19T08:14:33.459Z,16.25
2023-05-19T08:17:00.666Z,13.00
2023-05-19T08:19:27.766Z,13.27
2023-05-19T08:21:55.790Z,12.90
2023-05-19T08:24:22.800Z,14.60
2023-05-19T08:26:49.662Z,15.30
2023-05-19T08:29:16.707Z,14.88
2023-05-19T08:31:43.698Z,16.05
2023-05-19T08:34:10.791Z,12.45
2023-05-19T08:36:37.938Z,16.00
2023-05-19T08:39:05.056Z,14.88
2023-05-19T08:41:32.284Z,16.75
2023-05-19T08:43:59.316Z,15.55
2023-05-19T08:46:26.523Z,15.55
2023-05-19T08:48:55.433Z,17.65
2023-05-19T08:51:39.432Z,22.58
2023-05-19T08:54:18.129Z,16.80
2023-05-19T08:56:47.857Z,20.33
2023-05-19T08:59:15.487Z,17.98
2023-05-19T09:01:44.303Z,16.67
2023-05-19T09:04:11.231Z,15.40
2023-05-19T09:06:40.988Z,17.13
2023-05-19T09:09:08.502Z,15.93
2023-05-19T09:11:37.562Z,18.27
2023-05-19T09:14:07.501Z,16.95
2023-05-19T09:16:34.512Z,17.80
2023-05-19T09:19:01.734Z,16.33
2023-05-19T09:21:31.209Z,17.63
2023-05-19T09:24:08.294Z,15.65
2023-05-19T09:26:41.974Z,14.95
2023-05-19T09:29:15.589Z,16.92
2023-05-19T09:31:52.417Z,17.45
2023-05-19T09:34:19.525Z,17.70
2023-05-19T09:36:49.656Z,16.23
2023-05-19T09:39:17.093Z,16.63
2023-05-19T09:41:44.413Z,14.57
2023-05-19T09:44:23.314Z,21.08
2023-05-19T09:46:51.054Z,14.85
2023-05-19T09:49:21.907Z,14.32
2023-05-19T09:51:55.620Z,14.07
2023-05-19T09:54:23.805Z,15.43
2023-05-19T09:57:17.021Z,15.30
2023-05-19T09:59:43.873Z,13.23
2023-05-19T10:02:16.817Z,11.95
2023-05-19T10:04:43.716Z,15.57
2023-05-19T10:07:10.579Z,13.70
2023-05-19T10:09:37.536Z,15.75
2023-05-19T10:12:04.831Z,12.75
2023-05-19T10:14:31.766Z,12.40
2023-05-19T10:16:59.316Z,11.38
2023-05-19T10:19:27.709Z,13.98
2023-05-19T10:21:55.150Z,11.77
2023-05-19T10:24:22.294Z,13.52
2023-05-19T10:26:56.875Z,13.57
2023-05-19T10:29:28.461Z,12.15
2023-05-19T10:31:56.145Z,15.45
2023-05-19T10:34:26.959Z,15.55
2023-05-19T10:37:15.793Z,11.55
2023-05-19T10:39:44.725Z,12.20
2023-05-19T10:42:19.597Z,12.88
2023-05-19T10:45:02.837Z,11.35
2023-05-19T10:47:29.931Z,13.82
2023-05-19T10:49:57.183Z,13.45
2023-05-19T10:52:29.652Z,15.25
2023-05-19T10:54:58.331Z,13.68
2023-05-19T10:57:30.590Z,14.32
2023-05-19T11:00:08.130Z,13.50
2023-05-19T11:02:42.342Z,14.55
2023-05-19T11:05:19.536Z,14.32
2023-05-19T11:08:05.759Z,13.10
2023-05-19T11:10:32.660Z,14.63
2023-05-19T11:12:59.688Z,13.20
2023-05-19T11:15:29.785Z,12.10
2023-05-19T11:17:56.908Z,10.23
2023-05-19T11:20:25.308Z,13.25
2023-05-19T11:23:14.975Z,11.35
2023-05-19T11:25:46.926Z,11.20
2023-05-19T11:28:25.620Z,11.75
2023-05-19T11:30:54.507Z,14.90
2023-05-19T11:33:21.652Z,11.52
2023-05-19T11:35:50.373Z,13.38
2023-05-19T11:38:18.733Z,12.63
2023-05-19T11:40:45.886Z,11.35
2023-05-19T11:43:12.832Z,10.73
2023-05-19T11:45:39.762Z,12.40
2023-05-19T11:48:07.058Z,11.77
2023-05-19T11:50:35.307Z,15.30
2023-05-19T11:53:02.388Z,12.75
2023-05-19T11:55:29.976Z,14.85
2023-05-19T11:58:05.013Z,10.52
2023-05-19T12:00:38.960Z,10.70
2023-05-19T12:03:06.222Z,10.60
2023-05-19T12:05:37.976Z,13.90
2023-05-19T12:08:07.562Z,12.55
2023-05-19T12:10:35.573Z,11.68
2023-05-19T12:13:02.996Z,11.65
2023-05-19T12:15:31.498Z,11.80
2023-05-19T12:18:00.262Z,11.00
2023-05-19T12:20:28.939Z,9.32
2023-05-19T12:22:55.907Z,11.65
2023-05-19T12:25:23.335Z,10.48
2023-05-19T12:27:52.641Z,12.48
2023-05-19T12:30:21.940Z,12.38
2023-05-19T12:32:49.298Z,10.35
2023-05-19T12:35:16.696Z,8.40
2023-05-19T12:37:43.594Z,9.88
2023-05-19T12:40:12.252Z,9.50
2023-05-19T12:42:43.791Z,10.38
2023-05-19T12:45:10.790Z,11.68
2023-05-19T12:47:37.693Z,7.85
2023-05-19T12:50:05.577Z,10.15
2023-05-19T12:52:35.490Z,10.65
2023-05-19T12:55:07.232Z,9.90
2023-05-19T12:57:38.151Z,10.30
2023-05-19T13:00:07.034Z,10.77
2023-05-19T13:02:54.722Z,13.85
2023-05-19T13:05:21.961Z,12.60
2023-05-19T13:07:58.133Z,10.90
2023-05-19T13:10:27.170Z,15.63
2023-05-19T13:12:55.556Z,12.85
2023-05-19T13:15:23.798Z,12.10
2023-05-19T13:17:51.084Z,17.20
2023-05-19T13:20:17.992Z,13.65
2023-05-19T13:22:44.890Z,13.40
2023-05-19T13:25:11.810Z,13.63
2023-05-19T13:27:38.664Z,12.55
2023-05-19T13:30:06.178Z,13.15
2023-05-19T13:32:33.191Z,14.68
2023-05-19T13:35:00.980Z,14.63
2023-05-19T13:37:28.299Z,13.80
2023-05-19T13:39:55.788Z,13.23
2023-05-19T13:42:22.766Z,15.52
2023-05-19T13:44:49.660Z,12.82
2023-05-19T13:47:16.794Z,27.20
2023-05-19T13:49:43.703Z,18.10
2023-05-19T13:52:11.588Z,10.90
2023-05-19T13:54:38.518Z,13.13
2023-05-19T13:57:06.202Z,11.93
2023-05-19T13:59:33.218Z,12.60
2023-05-19T14:02:00.407Z,13.68
2023-05-19T14:04:27.393Z,13.15
2023-05-19T14:06:54.246Z,14.23
2023-05-19T14:09:21.186Z,11.88
2023-05-19T14:11:48.147Z,14.75
2023-05-19T14:14:15.062Z,12.30
2023-05-19T14:16:42.082Z,14.90
2023-05-19T14:19:09.123Z,12.43
2023-05-19T14:21:36.931Z,12.68
2023-05-19T14:24:04.079Z,14.88
2023-05-19T14:26:31.217Z,12.70
2023-05-19T14:28:58.289Z,13.70
2023-05-19T14:31:25.152Z,14.00
2023-05-19T14:33:52.661Z,13.93
2023-05-19T14:36:19.530Z,12.20
2023-05-19T14:38:46.441Z,13.27
2023-05-19T14:41:13.428Z,10.80
2023-05-19T14:43:42.163Z,11.63
2023-05-19T14:46:09.119Z,10.27
2023-05-19T14:48:36.041Z,13.52
2023-05-19T14:51:02.908Z,9.88
2023-05-19T14:53:29.782Z,10.10
2023-05-19T14:55:56.653Z,11.73
2023-05-19T14:58:28.900Z,10.60
2023-05-19T15:00:58.998Z,14.48
2023-05-19T15:03:25.952Z,12.02
2023-05-19T15:05:52.978Z,9.40
2023-05-19T15:08:19.870Z,11.68
2023-05-19T15:10:49.608Z,10.15
2023-05-19T15:13:18.765Z,12.80
2023-05-19T15:15:46.045Z,12.00
2023-05-19T15:18:16.152Z,13.30
2023-05-19T15:20:43.918Z,13.98
2023-05-19T15:23:10.968Z,13.43
2023-05-19T15:25:37.950Z,13.13
2023-05-19T15:28:04.982Z,12.02
2023-05-19T15:30:31.844Z,15.02
2023-05-19T15:32:58.991Z,12.93
2023-05-19T15:35:26.058Z,13.30
2023-05-19T15:37:53.094Z,14.43
2023-05-19T15:40:20.216Z,14.68
2023-05-19T15:42:47.108Z,15.90
2023-05-19T15:45:16.587Z,15.48
2023-05-19T15:47:43.523Z,12.40
2023-05-19T15:50:10.673Z,16.75
2023-05-19T15:52:37.549Z,13.77
2023-05-19T15:55:04.784Z,12.75
2023-05-19T15:57:31.634Z,15.15
2023-05-19T15:59:58.495Z,14.90
2023-05-19T16:02:25.509Z,14.70
2023-05-19T16:04:52.498Z,14.70
2023-05-19T16:07:19.420Z,13.20
2023-05-19T16:09:48.549Z,12.80
2023-05-19T16:12:15.456Z,12.60
2023-05-19T16:14:42.421Z,12.52
2023-05-19T16:17:11.611Z,14.15
2023-05-19T16:19:38.693Z,15.68
2023-05-19T16:22:05.813Z,16.00
2023-05-19T16:24:32.680Z,15.90
2023-05-19T16:26:59.502Z,14.05
2023-05-19T16:29:26.376Z,13.38
2023-05-19T16:31:53.227Z,14.55
2023-05-19T16:34:20.112Z,14.85
2023-05-19T16:36:47.013Z,14.18
2023-05-19T16:39:13.885Z,16.02
2023-05-19T16:41:40.808Z,12.00
2023-05-19T16:44:07.733Z,13.52
2023-05-19T16:46:34.674Z,13.77
2023-05-19T16:49:01.550Z,14.90
2023-05-19T16:51:28.423Z,16.88
2023-05-19T16:53:55.341Z,13.93
2023-05-19T16:56:22.348Z,14.05
2023-05-19T16:58:49.384Z,14.60
2023-05-19T17:01:17.363Z,15.07
2023-05-19T17:03:44.428Z,14.80
2023-05-19T17:06:11.347Z,14.27
2023-05-19T17:08:38.233Z,15.88
2023-05-19T17:11:06.531Z,12.82
2023-05-19T17:13:36.681Z,12.45
2023-05-19T17:16:03.678Z,15.68
2023-05-19T17:18:31.433Z,13.32
2023-05-19T17:21:03.328Z,13.40
2023-05-19T17:23:30.239Z,12.82
2023-05-19T17:25:57.219Z,13.95
2023-05-19T17:28:24.070Z,13.70
2023-05-19T17:30:50.918Z,12.20
2023-05-19T17:33:17.861Z,12.82
2023-05-19T17:35:44.758Z,13.98
2023-05-19T17:38:11.839Z,12.15
2023-05-19T17:40:40.081Z,11.32
2023-05-19T17:43:08.803Z,12.80
2023-05-19T17:45:35.711Z,12.40
2023-05-19T17:48:02.739Z,15.23
2023-05-19T17:50:29.656Z,12.25
2023-05-19T17:52:56.869Z,11.27
2023-05-19T17:55:27.979Z,12.82
2023-05-19T17:57:55.157Z,12.75
2023-05-19T18:00:22.438Z,15.95
2023-05-19T18:02:49.791Z,11.88
2023-05-19T18:05:17.292Z,11.48
2023-05-19T18:07:44.378Z,14.02
2023-05-19T18:10:11.923Z,11.25
2023-05-19T18:12:38.842Z,11.43
2023-05-19T18:15:06.205Z,14.07
2023-05-19T18:17:33.153Z,13.18
2023-05-19T18:20:00.045Z,13.52
2023-05-19T18:22:26.885Z,38.90
2023-05-19T18:24:53.813Z,19.85
2023-05-19T18:27:20.828Z,11.90
2023-05-19T18:29:47.668Z,13.23
2023-05-19T18:32:16.820Z,12.93
2023-05-19T18:34:43.805Z,13.07
2023-05-19T18:37:10.875Z,14.07
2023-05-19T18:39:37.783Z,11.05
2023-05-19T18:42:05.025Z,12.20
2023-05-19T18:44:33.814Z,16.60
2023-05-19T18:47:01.053Z,41.25
2023-05-19T18:49:27.908Z,21.90
2023-05-19T18:51:54.995Z,18.40
2023-05-19T18:54:22.397Z,12.85
2023-05-19T18:56:49.374Z,11.93
2023-05-19T18:59:16.238Z,9.88
2023-05-19T19:01:43.146Z,13.35
2023-05-19T19:04:10.212Z,12.23
2023-05-19T19:06:37.187Z,15.18
2023-05-19T19:09:04.094Z,12.27
2023-05-19T19:11:31.287Z,13.70
2023-05-19T19:13:58.151Z,12.85
2023-05-19T19:16:25.215Z,12.48
2023-05-19T19:18:52.192Z,13.55
2023-05-19T19:21:19.937Z,10.60
2023-05-19T19:23:46.802Z,11.93
2023-05-19T19:26:13.695Z,10.35
2023-05-19T19:28:40.723Z,9.75
2023-05-19T19:31:07.722Z,10.13
2023-05-19T19:33:34.738Z,10.15
2023-05-19T19:36:01.840Z,7.95
2023-05-19T19:38:28.730Z,11.27
2023-05-19T19:40:55.753Z,13.45
2023-05-19T19:43:22.717Z,12.15
2023-05-19T19:45:49.608Z,13.00
2023-05-19T19:48:16.820Z,11.00
2023-05-19T19:50:43.770Z,12.68
2023-05-19T19:53:10.929Z,10.13
2023-05-19T19:55:37.817Z,11.95
2023-05-19T19:58:04.689Z,12.25
2023-05-19T20:00:31.868Z,11.73
2023-05-19T20:05:28.707Z,15.50
2023-05-19T20:07:55.625Z,11.05
2023-05-19T20:10:22.687Z,13.50
2023-05-19T20:12:50.619Z,15.35
2023-05-19T20:15:17.788Z,16.23
2023-05-19T20:17:44.645Z,11.73
2023-05-19T20:20:12.295Z,14.07
2023-05-19T20:22:39.393Z,13.32
2023-05-19T20:25:06.619Z,13.10
2023-05-19T20:27:33.606Z,10.20
2023-05-19T20:30:00.740Z,14.52
2023-05-19T20:32:27.766Z,13.52
2023-05-19T20:34:54.675Z,10.20
2023-05-19T20:37:22.343Z,13.20
2023-05-19T20:39:49.396Z,15.15
2023-05-19T20:42:16.252Z,19.95
2023-05-19T20:44:43.336Z,18.65
2023-05-19T20:47:10.504Z,32.53
2023-05-19T20:49:37.524Z,43.15
2023-05-19T20:52:04.765Z,58.85
2023-05-19T20:54:31.735Z,48.17
2023-05-19T20:56:58.568Z,26.85
2023-05-19T20:59:25.976Z,37.72
2023-05-19T21:01:52.903Z,20.80
2023-05-19T21:04:19.797Z,17.23
2023-05-19T21:06:46.758Z,17.45
2023-05-19T21:09:14.718Z,18.02
2023-05-19T21:11:41.632Z,16.50
2023-05-19T21:14:08.637Z,15.90
2023-05-19T21:16:38.732Z,15.93
2023-05-19T21:19:06.631Z,12.93
2023-05-19T21:21:33.836Z,14.05
2023-05-19T21:24:00.882Z,14.48
2023-05-19T21:26:27.846Z,14.38
2023-05-19T21:28:54.744Z,12.57
2023-05-19T21:31:21.665Z,15.88
2023-05-19T21:33:48.614Z,14.45
2023-05-19T21:36:16.425Z,14.25
2023-05-19T21:38:43.283Z,15.52
2023-05-19T21:41:10.228Z,15.75
2023-05-19T21:43:37.214Z,16.02
2023-05-19T21:46:04.087Z,14.32
2023-05-19T21:48:31.058Z,14.13
2023-05-19T21:50:57.974Z,15.73
2023-05-19T21:53:24.874Z,15.52
2023-05-19T21:55:51.982Z,17.45
2023-05-19T21:58:18.835Z,15.27
2023-05-19T22:00:50.023Z,15.68
2023-05-19T22:03:17.509Z,18.17
2023-05-19T22:05:51.708Z,16.88
2023-05-19T22:08:19.115Z,21.42
2023-05-19T22:10:48.482Z,12.35
2023-05-19T22:13:15.752Z,15.75
2023-05-19T22:15:42.689Z,13.38
2023-05-19T22:18:09.608Z,15.40
2023-05-19T22:20:37.699Z,19.55
2023-05-19T22:23:04.891Z,15.05
2023-05-19T22:25:31.826Z,16.35
2023-05-19T22:28:01.109Z,15.98
2023-05-19T22:30:28.130Z,16.27
2023-05-19T22:32:55.201Z,15.30
2023-05-19T22:35:22.384Z,17.17
2023-05-19T22:37:49.351Z,15.35
2023-05-19T22:40:16.411Z,15.18
2023-05-19T22:42:43.287Z,16.48
2023-05-19T22:45:10.543Z,17.73
2023-05-19T22:47:37.430Z,17.08
2023-05-19T22:50:04.655Z,14.40
2023-05-19T22:52:31.480Z,16.40
2023-05-19T22:54:58.474Z,12.43
2023-05-19T22:57:25.543Z,15.50
2023-05-19T22:59:52.403Z,13.50
2023-05-19T23:02:19.788Z,14.48
2023-05-19T23:04:46.702Z,14.50
2023-05-19T23:07:13.561Z,15.45
2023-05-19T23:09:40.501Z,13.85
2023-05-19T23:12:07.412Z,17.92
2023-05-19T23:14:34.287Z,12.50
2023-05-19T23:17:01.167Z,14.20
2023-05-19T23:19:29.184Z,13.27
2023-05-19T23:21:56.146Z,14.95
2023-05-19T23:24:23.076Z,15.40
2023-05-19T23:26:50.085Z,13.70
2023-05-19T23:29:17.175Z,15.48
2023-05-19T23:31:44.370Z,12.25
2023-05-19T23:34:11.567Z,15.70
2023-05-19T23:36:38.495Z,12.43
2023-05-19T23:39:05.384Z,12.30
2023-05-19T23:41:32.228Z,18.85
2023-05-19T23:43:59.193Z,14.60
2023-05-19T23:46:26.429Z,16.15
2023-05-19T23:48:53.462Z,16.67
2023-05-19T23:51:20.416Z,16.52
2023-05-19T23:53:47.294Z,17.38
2023-05-19T23:56:14.223Z,13.57
2023-05-19T23:58:41.141Z,17.05
